sensor_id;sensor_type;location;lat;lon;timestamp;pressure;altitude;pressure_sealevel;temperature;humidity
78444;BME280;67739;52.986;8.894;2023-11-21T00:01:52;101038.03;;;9.25;90.01
78444;BME280;67739;52.986;8.894;2023-11-21T00:04:17;101032.69;;;9.25;89.77
78444;BME280;67739;52.986;8.894;2023-11-21T00:06:42;101037.16;;;9.24;89.73
78444;BME280;67739;52.986;8.894;2023-11-21T00:09:08;101041.56;;;9.25;89.85
78444;BME280;67739;52.986;8.894;2023-11-21T00:11:33;101044.25;;;9.25;89.79
78444;BME280;67739;52.986;8.894;2023-11-21T00:13:59;101046.06;;;9.25;89.85
78444;BME280;67739;52.986;8.894;2023-11-21T00:16:24;101040.78;;;9.23;89.89
78444;BME280;67739;52.986;8.894;2023-11-21T00:18:50;101047.00;;;9.23;89.73
78444;BME280;67739;52.986;8.894;2023-11-21T00:21:16;101044.31;;;9.23;89.63
78444;BME280;67739;52.986;8.894;2023-11-21T00:23:42;101046.16;;;9.23;90.00
78444;BME280;67739;52.986;8.894;2023-11-21T00:26:07;101045.28;;;9.23;89.77
78444;BME280;67739;52.986;8.894;2023-11-21T00:28:32;101056.84;;;9.23;89.75
78444;BME280;67739;52.986;8.894;2023-11-21T00:30:58;101050.63;;;9.23;89.78
78444;BME280;67739;52.986;8.894;2023-11-21T00:33:23;101051.56;;;9.21;89.50
78444;BME280;67739;52.986;8.894;2023-11-21T00:35:50;101051.50;;;9.23;89.76
78444;BME280;67739;52.986;8.894;2023-11-21T00:38:15;101055.09;;;9.22;89.83
78444;BME280;67739;52.986;8.894;2023-11-21T00:40:44;101055.09;;;9.22;90.12
78444;BME280;67739;52.986;8.894;2023-11-21T00:43:09;101060.47;;;9.22;89.98
78444;BME280;67739;52.986;8.894;2023-11-21T00:45:35;101047.06;;;9.22;89.87
78444;BME280;67739;52.986;8.894;2023-11-21T00:48:02;101049.75;;;9.22;89.80
78444;BME280;67739;52.986;8.894;2023-11-21T00:50:27;101055.09;;;9.22;89.87
78444;BME280;67739;52.986;8.894;2023-11-21T00:52:52;101058.66;;;9.23;89.92
78444;BME280;67739;52.986;8.894;2023-11-21T00:55:18;101071.16;;;9.22;89.81
78444;BME280;67739;52.986;8.894;2023-11-21T00:57:43;101073.84;;;9.22;90.01
78444;BME280;67739;52.986;8.894;2023-11-21T01:00:09;101071.16;;;9.22;89.99
78444;BME280;67739;52.986;8.894;2023-11-21T01:02:43;101067.63;;;9.21;89.81
78444;BME280;67739;52.986;8.894;2023-11-21T01:05:10;101072.09;;;9.21;89.60
78444;BME280;67739;52.986;8.894;2023-11-21T01:07:36;101081.00;;;9.21;89.63
78444;BME280;67739;52.986;8.894;2023-11-21T01:10:05;101081.00;;;9.21;89.57
78444;BME280;67739;52.986;8.894;2023-11-21T01:12:35;101080.13;;;9.21;89.78
78444;BME280;67739;52.986;8.894;2023-11-21T01:15:01;101091.72;;;9.21;89.85
78444;BME280;67739;52.986;8.894;2023-11-21T01:17:27;101088.16;;;9.21;89.74
78444;BME280;67739;52.986;8.894;2023-11-21T01:19:52;101086.34;;;9.21;89.77
78444;BME280;67739;52.986;8.894;2023-11-21T01:22:18;101086.34;;;9.21;89.64
78444;BME280;67739;52.986;8.894;2023-11-21T01:24:47;101093.50;;;9.21;89.89
78444;BME280;67739;52.986;8.894;2023-11-21T01:27:12;101096.19;;;9.21;89.96
78444;BME280;67739;52.986;8.894;2023-11-21T01:29:38;101094.38;;;9.21;89.72
78444;BME280;67739;52.986;8.894;2023-11-21T01:32:03;101088.16;;;9.21;89.69
78444;BME280;67739;52.986;8.894;2023-11-21T01:34:29;101090.84;;;9.21;89.86
78444;BME280;67739;52.986;8.894;2023-11-21T01:36:54;101099.75;;;9.21;89.90
78444;BME280;67739;52.986;8.894;2023-11-21T01:39:19;101096.19;;;9.21;89.54
78444;BME280;67739;52.986;8.894;2023-11-21T01:41:49;101097.16;;;9.18;89.79
78444;BME280;67739;52.986;8.894;2023-11-21T01:44:15;101105.16;;;9.20;89.57
78444;BME280;67739;52.986;8.894;2023-11-21T01:46:42;101097.13;;;9.20;89.80
78444;BME280;67739;52.986;8.894;2023-11-21T01:49:08;101106.94;;;9.19;89.76
78444;BME280;67739;52.986;8.894;2023-11-21T01:51:35;101103.41;;;9.19;89.65
78444;BME280;67739;52.986;8.894;2023-11-21T01:54:02;101115.84;;;9.20;89.89
78444;BME280;67739;52.986;8.894;2023-11-21T01:56:30;101109.63;;;9.19;89.76
78444;BME280;67739;52.986;8.894;2023-11-21T01:58:57;101116.78;;;9.19;89.99
78444;BME280;67739;52.986;8.894;2023-11-21T02:01:22;101115.84;;;9.20;89.62
78444;BME280;67739;52.986;8.894;2023-11-21T02:03:47;101112.31;;;9.19;89.58
78444;BME280;67739;52.986;8.894;2023-11-21T02:06:13;101123.00;;;9.19;89.92
78444;BME280;67739;52.986;8.894;2023-11-21T02:08:38;101129.25;;;9.20;89.66
78444;BME280;67739;52.986;8.894;2023-11-21T02:11:05;101120.34;;;9.19;89.78
78444;BME280;67739;52.986;8.894;2023-11-21T02:13:30;101120.34;;;9.19;89.94
78444;BME280;67739;52.986;8.894;2023-11-21T02:15:57;101125.69;;;9.19;89.62
78444;BME280;67739;52.986;8.894;2023-11-21T02:18:23;101128.38;;;9.19;89.82
78444;BME280;67739;52.986;8.894;2023-11-21T02:20:48;101127.50;;;9.19;89.84
78444;BME280;67739;52.986;8.894;2023-11-21T02:23:14;101136.41;;;9.19;89.42
78444;BME280;67739;52.986;8.894;2023-11-21T02:25:39;101147.09;;;9.19;89.96
78444;BME280;67739;52.986;8.894;2023-11-21T02:28:05;101152.47;;;9.19;89.83
78444;BME280;67739;52.986;8.894;2023-11-21T02:30:32;101155.13;;;9.19;89.96
78444;BME280;67739;52.986;8.894;2023-11-21T02:32:57;101155.13;;;9.19;89.79
78444;BME280;67739;52.986;8.894;2023-11-21T02:35:23;101163.16;;;9.19;89.62
78444;BME280;67739;52.986;8.894;2023-11-21T02:37:51;101164.03;;;9.20;89.50
78444;BME280;67739;52.986;8.894;2023-11-21T02:40:16;101160.44;;;9.21;89.73
78444;BME280;67739;52.986;8.894;2023-11-21T02:42:49;101164.91;;;9.20;89.94
78444;BME280;67739;52.986;8.894;2023-11-21T02:45:16;101161.38;;;9.20;89.76
78444;BME280;67739;52.986;8.894;2023-11-21T02:47:42;101164.91;;;9.20;89.62
78444;BME280;67739;52.986;8.894;2023-11-21T02:50:08;101164.03;;;9.20;89.84
78444;BME280;67739;52.986;8.894;2023-11-21T02:52:34;101156.88;;;9.20;89.98
78444;BME280;67739;52.986;8.894;2023-11-21T02:55:00;101168.47;;;9.21;89.78
78444;BME280;67739;52.986;8.894;2023-11-21T02:57:26;101160.44;;;9.21;89.98
78444;BME280;67739;52.986;8.894;2023-11-21T02:59:51;101171.16;;;9.21;89.90
78444;BME280;67739;52.986;8.894;2023-11-21T03:02:17;101162.25;;;9.20;89.81
78444;BME280;67739;52.986;8.894;2023-11-21T03:04:42;101163.13;;;9.21;89.96
78444;BME280;67739;52.986;8.894;2023-11-21T03:07:08;101161.31;;;9.21;89.70
78444;BME280;67739;52.986;8.894;2023-11-21T03:09:34;101179.19;;;9.21;89.86
78444;BME280;67739;52.986;8.894;2023-11-21T03:12:00;101175.56;;;9.22;89.67
78444;BME280;67739;52.986;8.894;2023-11-21T03:14:25;101174.69;;;9.21;89.98
78444;BME280;67739;52.986;8.894;2023-11-21T03:16:50;101181.81;;;9.23;89.83
78444;BME280;67739;52.986;8.894;2023-11-21T03:19:16;101184.47;;;9.23;89.88
78444;BME280;67739;52.986;8.894;2023-11-21T03:21:42;101185.34;;;9.23;89.79
78444;BME280;67739;52.986;8.894;2023-11-21T03:24:08;101186.19;;;9.23;90.00
78444;BME280;67739;52.986;8.894;2023-11-21T03:26:33;101188.81;;;9.25;89.98
78444;BME280;67739;52.986;8.894;2023-11-21T03:28:58;101192.41;;;9.24;89.78
78444;BME280;67739;52.986;8.894;2023-11-21T03:31:24;101198.66;;;9.25;90.02
78444;BME280;67739;52.986;8.894;2023-11-21T03:33:49;101205.75;;;9.26;90.05
78444;BME280;67739;52.986;8.894;2023-11-21T03:36:14;101206.63;;;9.26;90.18
78444;BME280;67739;52.986;8.894;2023-11-21T03:38:40;101195.03;;;9.26;89.92
78444;BME280;67739;52.986;8.894;2023-11-21T03:41:06;101207.50;;;9.27;90.05
78444;BME280;67739;52.986;8.894;2023-11-21T03:43:32;101217.28;;;9.28;89.94
78444;BME280;67739;52.986;8.894;2023-11-21T03:45:57;101213.72;;;9.27;90.20
78444;BME280;67739;52.986;8.894;2023-11-21T03:48:22;101213.72;;;9.27;90.27
78444;BME280;67739;52.986;8.894;2023-11-21T03:50:48;101217.34;;;9.26;90.27
78444;BME280;67739;52.986;8.894;2023-11-21T03:53:14;101233.34;;;9.28;90.20
78444;BME280;67739;52.986;8.894;2023-11-21T03:55:39;101241.38;;;9.28;90.15
78444;BME280;67739;52.986;8.894;2023-11-21T03:58:04;101236.91;;;9.28;90.43
78444;BME280;67739;52.986;8.894;2023-11-21T04:00:29;101244.00;;;9.29;90.46
78444;BME280;67739;52.986;8.894;2023-11-21T04:02:55;101243.13;;;9.29;90.17
78444;BME280;67739;52.986;8.894;2023-11-21T04:05:21;101255.66;;;9.28;90.19
78444;BME280;67739;52.986;8.894;2023-11-21T04:07:50;101260.06;;;9.29;89.91
78444;BME280;67739;52.986;8.894;2023-11-21T04:10:16;101253.84;;;9.29;90.21
78444;BME280;67739;52.986;8.894;2023-11-21T04:12:42;101259.19;;;9.29;90.42
78444;BME280;67739;52.986;8.894;2023-11-21T04:15:08;101262.81;;;9.28;90.28
78444;BME280;67739;52.986;8.894;2023-11-21T04:17:34;101264.59;;;9.27;90.27
78444;BME280;67739;52.986;8.894;2023-11-21T04:20:00;101280.66;;;9.27;90.11
78444;BME280;67739;52.986;8.894;2023-11-21T04:22:25;101285.16;;;9.27;90.08
78444;BME280;67739;52.986;8.894;2023-11-21T04:24:51;101286.94;;;9.26;90.11
78444;BME280;67739;52.986;8.894;2023-11-21T04:27:16;101288.69;;;9.27;90.19
78444;BME280;67739;52.986;8.894;2023-11-21T04:29:45;101286.94;;;9.26;90.39
78444;BME280;67739;52.986;8.894;2023-11-21T04:32:10;101293.19;;;9.27;90.04
78444;BME280;67739;52.986;8.894;2023-11-21T04:34:36;101291.38;;;9.27;90.27
78444;BME280;67739;52.986;8.894;2023-11-21T04:37:01;101294.09;;;9.26;90.21
78444;BME280;67739;52.986;8.894;2023-11-21T04:39:26;101311.91;;;9.27;90.09
78444;BME280;67739;52.986;8.894;2023-11-21T04:41:52;101309.25;;;9.27;89.94
78444;BME280;67739;52.986;8.894;2023-11-21T04:44:17;101315.50;;;9.26;90.14
78444;BME280;67739;52.986;8.894;2023-11-21T04:46:43;101315.50;;;9.26;89.97
78444;BME280;67739;52.986;8.894;2023-11-21T04:49:08;101312.84;;;9.26;89.78
78444;BME280;67739;52.986;8.894;2023-11-21T04:51:34;101325.34;;;9.25;89.96
78444;BME280;67739;52.986;8.894;2023-11-21T04:53:59;101332.50;;;9.25;89.81
78444;BME280;67739;52.986;8.894;2023-11-21T04:56:24;101325.41;;;9.23;89.82
78444;BME280;67739;52.986;8.894;2023-11-21T04:58:50;101338.72;;;9.25;89.56
78444;BME280;67739;52.986;8.894;2023-11-21T05:01:15;101342.34;;;9.24;89.94
78444;BME280;67739;52.986;8.894;2023-11-21T05:03:41;101345.97;;;9.23;89.66
78444;BME280;67739;52.986;8.894;2023-11-21T05:06:09;101354.06;;;9.21;89.87
78444;BME280;67739;52.986;8.894;2023-11-21T05:08:34;101358.53;;;9.21;89.59
78444;BME280;67739;52.986;8.894;2023-11-21T05:11:02;101363.00;;;9.20;89.62
78444;BME280;67739;52.986;8.894;2023-11-21T05:13:27;101363.06;;;9.19;89.81
78444;BME280;67739;52.986;8.894;2023-11-21T05:15:54;101376.44;;;9.19;89.55
78444;BME280;67739;52.986;8.894;2023-11-21T05:18:20;101370.22;;;9.18;89.42
78444;BME280;67739;52.986;8.894;2023-11-21T05:20:46;101370.25;;;9.17;89.61
78444;BME280;67739;52.986;8.894;2023-11-21T05:23:12;101372.06;;;9.16;89.65
78444;BME280;67739;52.986;8.894;2023-11-21T05:25:37;101385.50;;;9.15;89.54
78444;BME280;67739;52.986;8.894;2023-11-21T05:28:03;101379.25;;;9.14;89.49
78444;BME280;67739;52.986;8.894;2023-11-21T05:30:29;101391.75;;;9.14;89.40
78444;BME280;67739;52.986;8.894;2023-11-21T05:32:54;101390.94;;;9.12;89.01
78444;BME280;67739;52.986;8.894;2023-11-21T05:35:19;101393.66;;;9.10;89.35
78444;BME280;67739;52.986;8.894;2023-11-21T05:37:46;101404.38;;;9.10;89.40
78444;BME280;67739;52.986;8.894;2023-11-21T05:40:12;101403.50;;;9.10;89.54
78444;BME280;67739;52.986;8.894;2023-11-21T05:42:39;101411.59;;;9.08;89.21
78444;BME280;67739;52.986;8.894;2023-11-21T05:45:04;101411.66;;;9.07;89.14
78444;BME280;67739;52.986;8.894;2023-11-21T05:47:42;101416.13;;;9.06;89.36
78444;BME280;67739;52.986;8.894;2023-11-21T05:50:11;101417.09;;;9.04;88.94
78444;BME280;67739;52.986;8.894;2023-11-21T05:52:39;101434.03;;;9.04;89.29
78444;BME280;67739;52.986;8.894;2023-11-21T05:55:05;101430.50;;;9.02;89.19
78444;BME280;67739;52.986;8.894;2023-11-21T05:57:33;101442.19;;;9.00;89.07
78444;BME280;67739;52.986;8.894;2023-11-21T05:59:59;101448.47;;;8.99;88.94
78444;BME280;67739;52.986;8.894;2023-11-21T06:02:24;101452.97;;;8.97;89.03
78444;BME280;67739;52.986;8.894;2023-11-21T06:04:51;101458.38;;;8.95;89.13
78444;BME280;67739;52.986;8.894;2023-11-21T06:07:16;101453.97;;;8.94;88.91
78444;BME280;67739;52.986;8.894;2023-11-21T06:09:42;101465.59;;;8.93;89.07
78444;BME280;67739;52.986;8.894;2023-11-21T06:12:07;101471.00;;;8.92;88.71
78444;BME280;67739;52.986;8.894;2023-11-21T06:14:32;101490.66;;;8.91;88.72
78444;BME280;67739;52.986;8.894;2023-11-21T06:17:00;101491.56;;;8.90;89.02
78444;BME280;67739;52.986;8.894;2023-11-21T06:19:25;101505.88;;;8.89;88.96
78444;BME280;67739;52.986;8.894;2023-11-21T06:21:51;101497.88;;;8.87;88.64
78444;BME280;67739;52.986;8.894;2023-11-21T06:24:16;101505.03;;;8.86;88.98
78444;BME280;67739;52.986;8.894;2023-11-21T06:26:42;101503.31;;;8.84;88.83
78444;BME280;67739;52.986;8.894;2023-11-21T06:29:07;101507.78;;;8.83;88.93
78444;BME280;67739;52.986;8.894;2023-11-21T06:31:32;101511.41;;;8.81;88.77
78444;BME280;67739;52.986;8.894;2023-11-21T06:33:58;101520.41;;;8.80;88.62
78444;BME280;67739;52.986;8.894;2023-11-21T06:36:25;101520.44;;;8.78;88.52
78444;BME280;67739;52.986;8.894;2023-11-21T06:38:51;101521.38;;;8.77;88.49
78444;BME280;67739;52.986;8.894;2023-11-21T06:41:16;101527.69;;;8.75;88.61
78444;BME280;67739;52.986;8.894;2023-11-21T06:43:42;101533.94;;;8.74;88.32
78444;BME280;67739;52.986;8.894;2023-11-21T06:46:11;101547.34;;;8.72;88.55
78444;BME280;67739;52.986;8.894;2023-11-21T06:48:36;101543.84;;;8.70;88.55
78444;BME280;67739;52.986;8.894;2023-11-21T06:51:03;101546.56;;;8.69;88.30
78444;BME280;67739;52.986;8.894;2023-11-21T06:53:29;101554.63;;;8.67;88.43
78444;BME280;67739;52.986;8.894;2023-11-21T06:55:54;101563.56;;;8.66;88.19
78444;BME280;67739;52.986;8.894;2023-11-21T06:58:20;101574.34;;;8.65;88.26
78444;BME280;67739;52.986;8.894;2023-11-21T07:00:45;101583.31;;;8.62;88.37
78444;BME280;67739;52.986;8.894;2023-11-21T07:03:13;101587.81;;;8.60;88.46
78444;BME280;67739;52.986;8.894;2023-11-21T07:05:39;101594.09;;;8.59;88.36
78444;BME280;67739;52.986;8.894;2023-11-21T07:08:04;101593.25;;;8.57;88.17
78444;BME280;67739;52.986;8.894;2023-11-21T07:10:29;101602.19;;;8.56;88.21
78444;BME280;67739;52.986;8.894;2023-11-21T07:12:55;101607.56;;;8.55;88.31
78444;BME280;67739;52.986;8.894;2023-11-21T07:15:22;101607.63;;;8.53;88.21
78444;BME280;67739;52.986;8.894;2023-11-21T07:17:47;101604.97;;;8.51;88.06
78444;BME280;67739;52.986;8.894;2023-11-21T07:20:13;101605.97;;;8.49;87.98
78444;BME280;67739;52.986;8.894;2023-11-21T07:22:39;101608.69;;;8.47;88.38
78444;BME280;67739;52.986;8.894;2023-11-21T07:25:04;101614.06;;;8.46;88.07
78444;BME280;67739;52.986;8.894;2023-11-21T07:27:30;101620.31;;;8.45;88.21
78444;BME280;67739;52.986;8.894;2023-11-21T07:29:55;101622.16;;;8.43;88.20
78444;BME280;67739;52.986;8.894;2023-11-21T07:32:20;101627.53;;;8.41;87.90
78444;BME280;67739;52.986;8.894;2023-11-21T07:34:46;101632.00;;;8.41;88.04
78444;BME280;67739;52.986;8.894;2023-11-21T07:37:11;101640.06;;;8.39;87.89
78444;BME280;67739;52.986;8.894;2023-11-21T07:39:37;101635.66;;;8.37;88.09
78444;BME280;67739;52.986;8.894;2023-11-21T07:42:06;101650.81;;;8.38;87.78
78444;BME280;67739;52.986;8.894;2023-11-21T07:44:32;101647.31;;;8.36;88.29
78444;BME280;67739;52.986;8.894;2023-11-21T07:46:57;101649.16;;;8.34;88.15
78444;BME280;67739;52.986;8.894;2023-11-21T07:49:25;101645.63;;;8.32;88.20
78444;BME280;67739;52.986;8.894;2023-11-21T07:51:52;101644.75;;;8.30;87.93
78444;BME280;67739;52.986;8.894;2023-11-21T07:54:17;101648.34;;;8.29;87.87
78444;BME280;67739;52.986;8.894;2023-11-21T07:56:43;101656.34;;;8.29;88.04
78444;BME280;67739;52.986;8.894;2023-11-21T07:59:08;101652.84;;;8.27;87.77
78444;BME280;67739;52.986;8.894;2023-11-21T08:01:33;101666.22;;;8.27;87.98
78444;BME280;67739;52.986;8.894;2023-11-21T08:03:59;101670.69;;;8.25;87.55
78444;BME280;67739;52.986;8.894;2023-11-21T08:06:29;101680.50;;;8.24;87.72
78444;BME280;67739;52.986;8.894;2023-11-21T08:08:54;101685.91;;;8.23;87.79
78444;BME280;67739;52.986;8.894;2023-11-21T08:11:20;101693.06;;;8.22;87.89
78444;BME280;67739;52.986;8.894;2023-11-21T08:13:46;101693.09;;;8.21;87.80
78444;BME280;67739;52.986;8.894;2023-11-21T08:16:12;101694.91;;;8.20;87.87
78444;BME280;67739;52.986;8.894;2023-11-21T08:18:37;101698.47;;;8.19;87.77
78444;BME280;67739;52.986;8.894;2023-11-21T08:21:02;101700.28;;;8.19;87.89
78444;BME280;67739;52.986;8.894;2023-11-21T08:23:29;101703.84;;;8.18;87.72
78444;BME280;67739;52.986;8.894;2023-11-21T08:25:54;101714.59;;;8.16;87.70
78444;BME280;67739;52.986;8.894;2023-11-21T08:28:20;101705.69;;;8.15;87.82
78444;BME280;67739;52.986;8.894;2023-11-21T08:30:48;101717.28;;;8.14;87.84
78444;BME280;67739;52.986;8.894;2023-11-21T08:33:13;101719.09;;;8.14;87.73
78444;BME280;67739;52.986;8.894;2023-11-21T08:35:39;101719.13;;;8.12;87.76
78444;BME280;67739;52.986;8.894;2023-11-21T08:38:04;101722.66;;;8.13;87.64
78444;BME280;67739;52.986;8.894;2023-11-21T08:40:30;101735.19;;;8.11;87.98
78444;BME280;67739;52.986;8.894;2023-11-21T08:42:55;101734.31;;;8.10;87.69
78444;BME280;67739;52.986;8.894;2023-11-21T08:45:21;101743.22;;;8.09;87.97
78444;BME280;67739;52.986;8.894;2023-11-21T08:47:48;101745.03;;;8.09;87.63
78444;BME280;67739;52.986;8.894;2023-11-21T08:50:13;101746.88;;;8.07;87.86
78444;BME280;67739;52.986;8.894;2023-11-21T08:52:40;101751.28;;;8.08;87.64
78444;BME280;67739;52.986;8.894;2023-11-21T08:55:06;101753.94;;;8.08;87.55
78444;BME280;67739;52.986;8.894;2023-11-21T08:57:40;101759.34;;;8.06;87.70
78444;BME280;67739;52.986;8.894;2023-11-21T09:00:07;101770.06;;;8.06;87.58
78444;BME280;67739;52.986;8.894;2023-11-21T09:02:37;101771.88;;;8.04;87.71
78444;BME280;67739;52.986;8.894;2023-11-21T09:05:05;101773.63;;;8.05;87.95
78444;BME280;67739;52.986;8.894;2023-11-21T09:07:31;101783.47;;;8.03;87.82
78444;BME280;67739;52.986;8.894;2023-11-21T09:09:56;101781.69;;;8.04;87.66
78444;BME280;67739;52.986;8.894;2023-11-21T09:12:22;101792.38;;;8.04;87.65
78444;BME280;67739;52.986;8.894;2023-11-21T09:14:47;101798.59;;;8.04;87.75
78444;BME280;67739;52.986;8.894;2023-11-21T09:17:13;101797.75;;;8.02;87.89
78444;BME280;67739;52.986;8.894;2023-11-21T09:19:40;101800.41;;;8.02;87.81
78444;BME280;67739;52.986;8.894;2023-11-21T09:22:05;101809.31;;;8.03;87.64
78444;BME280;67739;52.986;8.894;2023-11-21T09:24:31;101812.91;;;8.02;87.67
78444;BME280;67739;52.986;8.894;2023-11-21T09:26:57;101820.91;;;8.02;87.65
78444;BME280;67739;52.986;8.894;2023-11-21T09:29:22;101825.34;;;8.03;87.71
78444;BME280;67739;52.986;8.894;2023-11-21T09:31:48;101835.16;;;8.02;87.89
78444;BME280;67739;52.986;8.894;2023-11-21T09:34:16;101841.38;;;8.03;87.73
78444;BME280;67739;52.986;8.894;2023-11-21T09:36:45;101841.38;;;8.03;87.73
78444;BME280;67739;52.986;8.894;2023-11-21T09:39:10;101844.94;;;8.03;87.81
78444;BME280;67739;52.986;8.894;2023-11-21T09:41:52;101851.16;;;8.04;87.60
78444;BME280;67739;52.986;8.894;2023-11-21T09:44:30;101857.38;;;8.04;87.60
78444;BME280;67739;52.986;8.894;2023-11-21T09:46:59;101858.25;;;8.05;87.58
78444;BME280;67739;52.986;8.894;2023-11-21T09:49:26;101867.16;;;8.05;87.40
78444;BME280;67739;52.986;8.894;2023-11-21T09:51:54;101868.03;;;8.06;87.59
78444;BME280;67739;52.986;8.894;2023-11-21T09:54:20;101866.25;;;8.06;87.96
78444;BME280;67739;52.986;8.894;2023-11-21T09:56:46;101868.88;;;8.08;87.63
78444;BME280;67739;52.986;8.894;2023-11-21T09:59:14;101860.84;;;8.08;87.63
78444;BME280;67739;52.986;8.894;2023-11-21T10:01:42;101869.75;;;8.08;87.83
78444;BME280;67739;52.986;8.894;2023-11-21T10:04:10;101874.19;;;8.09;87.24
78444;BME280;67739;52.986;8.894;2023-11-21T10:06:40;101877.75;;;8.10;87.76
78444;BME280;67739;52.986;8.894;2023-11-21T10:09:12;101882.16;;;8.11;87.55
78444;BME280;67739;52.986;8.894;2023-11-21T10:11:41;101881.25;;;8.12;87.52
78444;BME280;67739;52.986;8.894;2023-11-21T10:14:08;101882.16;;;8.12;87.64
78444;BME280;67739;52.986;8.894;2023-11-21T10:16:36;101883.03;;;8.13;87.55
78444;BME280;67739;52.986;8.894;2023-11-21T10:19:03;101904.38;;;8.14;87.50
78444;BME280;67739;52.986;8.894;2023-11-21T10:21:29;101903.47;;;8.15;87.48
78444;BME280;67739;52.986;8.894;2023-11-21T10:23:55;101902.56;;;8.16;87.55
78444;BME280;67739;52.986;8.894;2023-11-21T10:26:22;101894.50;;;8.18;87.66
78444;BME280;67739;52.986;8.894;2023-11-21T10:28:56;101904.28;;;8.19;87.52
78444;BME280;67739;52.986;8.894;2023-11-21T10:31:23;101905.19;;;8.20;87.50
78444;BME280;67739;52.986;8.894;2023-11-21T10:33:49;101894.50;;;8.20;87.47
78444;BME280;67739;52.986;8.894;2023-11-21T10:36:25;101890.00;;;8.22;87.29
78444;BME280;67739;52.986;8.894;2023-11-21T10:38:51;101896.16;;;8.24;87.34
78444;BME280;67739;52.986;8.894;2023-11-21T10:41:18;101906.81;;;8.25;87.49
78444;BME280;67739;52.986;8.894;2023-11-21T10:43:43;101918.41;;;8.26;87.23
78444;BME280;67739;52.986;8.894;2023-11-21T10:46:09;101908.56;;;8.28;87.10
78444;BME280;67739;52.986;8.894;2023-11-21T10:48:34;101909.44;;;8.28;87.12
78444;BME280;67739;52.986;8.894;2023-11-21T10:51:06;101912.97;;;8.30;87.06
78444;BME280;67739;52.986;8.894;2023-11-21T10:53:32;101913.84;;;8.31;87.24
78444;BME280;67739;52.986;8.894;2023-11-21T10:56:05;101905.84;;;8.32;87.43
78444;BME280;67739;52.986;8.894;2023-11-21T10:58:36;101904.91;;;8.35;87.07
78444;BME280;67739;52.986;8.894;2023-11-21T11:01:03;101903.91;;;8.37;87.08
78444;BME280;67739;52.986;8.894;2023-11-21T11:03:31;101909.28;;;8.37;87.08
78444;BME280;67739;52.986;8.894;2023-11-21T11:05:58;101907.47;;;8.38;86.90
78444;BME280;67739;52.986;8.894;2023-11-21T11:08:24;101918.13;;;8.41;87.13
78444;BME280;67739;52.986;8.894;2023-11-21T11:10:52;101916.34;;;8.40;86.94
78444;BME280;67739;52.986;8.894;2023-11-21T11:13:17;101931.44;;;8.44;86.93
78444;BME280;67739;52.986;8.894;2023-11-21T11:15:47;101928.75;;;8.44;86.85
78444;BME280;67739;52.986;8.894;2023-11-21T11:18:12;101933.16;;;8.46;86.72
78444;BME280;67739;52.986;8.894;2023-11-21T11:20:39;101937.59;;;8.47;86.97
78444;BME280;67739;52.986;8.894;2023-11-21T11:23:15;101937.56;;;8.49;86.96
78444;BME280;67739;52.986;8.894;2023-11-21T11:28:47;101939.25;;;8.53;86.76
78444;BME280;67739;52.986;8.894;2023-11-21T11:34:26;101952.56;;;8.56;86.49
78444;BME280;67739;52.986;8.894;2023-11-21T11:37:03;101944.50;;;8.58;86.42
78444;BME280;67739;52.986;8.894;2023-11-21T11:39:37;101958.72;;;8.60;86.71
78444;BME280;67739;52.986;8.894;2023-11-21T11:42:08;101954.25;;;8.60;86.48
78444;BME280;67739;52.986;8.894;2023-11-21T11:47:31;101950.63;;;8.64;86.28
78444;BME280;67739;52.986;8.894;2023-11-21T11:50:10;101946.94;;;8.68;86.09
78444;BME280;67739;52.986;8.894;2023-11-21T11:52:46;101947.78;;;8.70;85.96
78444;BME280;67739;52.986;8.894;2023-11-21T11:55:17;101954.91;;;8.71;85.98
78444;BME280;67739;52.986;8.894;2023-11-21T11:57:47;101947.72;;;8.73;86.09
78444;BME280;67739;52.986;8.894;2023-11-21T12:00:21;101948.56;;;8.75;86.17
78444;BME280;67739;52.986;8.894;2023-11-21T12:02:54;101953.88;;;8.78;86.12
78444;BME280;67739;52.986;8.894;2023-11-21T12:05:22;101952.00;;;8.80;85.92
78444;BME280;67739;52.986;8.894;2023-11-21T12:07:55;101946.59;;;8.83;86.16
78444;BME280;67739;52.986;8.894;2023-11-21T12:10:32;101960.81;;;8.85;86.01
78444;BME280;67739;52.986;8.894;2023-11-21T12:13:06;101961.69;;;8.88;85.98
78444;BME280;67739;52.986;8.894;2023-11-21T12:15:33;101970.56;;;8.90;85.82
78444;BME280;67739;52.986;8.894;2023-11-21T12:18:00;101977.63;;;8.92;85.93
78444;BME280;67739;52.986;8.894;2023-11-21T12:20:27;101987.38;;;8.95;85.83
78444;BME280;67739;52.986;8.894;2023-11-21T12:22:54;101989.13;;;8.96;85.85
78444;BME280;67739;52.986;8.894;2023-11-21T12:25:24;101986.41;;;8.99;85.76
78444;BME280;67739;52.986;8.894;2023-11-21T12:27:51;101996.19;;;9.00;85.60
78444;BME280;67739;52.986;8.894;2023-11-21T12:30:18;101997.94;;;9.01;85.94
78444;BME280;67739;52.986;8.894;2023-11-21T12:32:48;101999.72;;;9.02;85.68
78444;BME280;67739;52.986;8.894;2023-11-21T12:35:14;102003.28;;;9.02;85.66
78444;BME280;67739;52.986;8.894;2023-11-21T12:37:41;101989.88;;;9.02;85.75
78444;BME280;67739;52.986;8.894;2023-11-21T12:40:10;102005.03;;;9.03;85.88
78444;BME280;67739;52.986;8.894;2023-11-21T12:42:47;102008.59;;;9.04;85.78
78444;BME280;67739;52.986;8.894;2023-11-21T12:47:54;102023.75;;;9.05;85.83
78444;BME280;67739;52.986;8.894;2023-11-21T12:50:22;102014.81;;;9.04;85.67
78444;BME280;67739;52.986;8.894;2023-11-21T12:52:52;102029.09;;;9.05;85.55
78444;BME280;67739;52.986;8.894;2023-11-21T12:55:22;102021.06;;;9.05;85.69
78444;BME280;67739;52.986;8.894;2023-11-21T12:57:55;102016.63;;;9.04;85.50
78444;BME280;67739;52.986;8.894;2023-11-21T13:00:35;102025.53;;;9.04;85.54
78444;BME280;67739;52.986;8.894;2023-11-21T13:03:03;102026.44;;;9.03;85.52
78444;BME280;67739;52.986;8.894;2023-11-21T13:05:36;102032.69;;;9.04;85.56
78444;BME280;67739;52.986;8.894;2023-11-21T13:08:05;102039.84;;;9.03;85.60
78444;BME280;67739;52.986;8.894;2023-11-21T13:10:34;102041.63;;;9.03;85.45